createdAt,value
2019-05-10T00:00:05.801Z,996.86
2019-05-10T00:01:05.755Z,996.87
2019-05-10T00:02:05.772Z,996.86
2019-05-10T00:03:05.768Z,996.86
2019-05-10T00:04:05.817Z,996.89
2019-05-10T00:05:05.753Z,996.88
2019-05-10T00:06:05.737Z,996.91
2019-05-10T00:07:07.349Z,996.91
2019-05-10T00:08:05.754Z,996.92
2019-05-10T00:09:05.705Z,996.92
2019-05-10T00:10:05.681Z,996.91
2019-05-10T00:11:05.831Z,996.95
2019-05-10T00:12:05.657Z,996.92
2019-05-10T00:13:05.655Z,996.88
2019-05-10T00:14:05.654Z,996.92
2019-05-10T00:15:05.616Z,996.94
2019-05-10T00:16:06.509Z,996.93
2019-05-10T00:17:05.637Z,996.93
2019-05-10T00:18:05.593Z,996.94
2019-05-10T00:19:05.581Z,996.92
2019-05-10T00:20:05.575Z,996.89
2019-05-10T00:21:05.546Z,996.92
2019-05-10T00:22:05.606Z,996.94
2019-05-10T00:23:05.556Z,996.91
2019-05-10T00:24:05.515Z,996.95
2019-05-10T00:25:06.416Z,996.92
2019-05-10T00:26:05.491Z,996.91
2019-05-10T00:27:05.499Z,996.94
2019-05-10T00:28:05.529Z,996.95
2019-05-10T00:29:05.514Z,996.95
2019-05-10T00:30:05.464Z,996.98
2019-05-10T00:31:05.491Z,996.98
2019-05-10T00:32:05.436Z,996.98
2019-05-10T00:33:05.458Z,996.99
2019-05-10T00:34:05.447Z,996.94
2019-05-10T00:35:05.422Z,996.96
2019-05-10T00:36:05.407Z,996.97
2019-05-10T00:37:05.428Z,996.98
2019-05-10T00:38:05.413Z,996.97
2019-05-10T00:39:05.408Z,996.97
2019-05-10T00:40:05.392Z,996.96
2019-05-10T00:41:05.350Z,996.96
2019-05-10T00:42:05.354Z,996.94
2019-05-10T00:43:05.341Z,997.00
2019-05-10T00:44:05.362Z,996.97
2019-05-10T00:45:05.346Z,996.99
2019-05-10T00:46:05.319Z,996.99
2019-05-10T00:47:05.371Z,996.99
2019-05-10T00:48:05.267Z,996.97
2019-05-10T00:49:05.296Z,997.01
2019-05-10T00:50:05.280Z,997.02
2019-05-10T00:51:05.238Z,996.97
2019-05-10T00:52:05.230Z,996.99
2019-05-10T00:53:05.295Z,996.99
2019-05-10T00:54:05.253Z,997.04
2019-05-10T00:55:17.728Z,996.98
2019-05-10T00:56:06.177Z,996.96
2019-05-10T00:57:05.160Z,996.97
2019-05-10T00:58:05.176Z,997.02
2019-05-10T00:59:05.176Z,997.03
2019-05-10T01:00:05.136Z,997.03
2019-05-10T01:01:05.147Z,997.04
2019-05-10T01:02:14.556Z,997.01
2019-05-10T01:03:14.483Z,996.99
2019-05-10T01:04:14.998Z,997.03
2019-05-10T01:05:13.496Z,997.03
2019-05-10T01:06:14.555Z,997.02
2019-05-10T01:08:21.957Z,996.99
2019-05-10T01:09:29.599Z,996.98
2019-05-10T01:10:30.346Z,996.98
2019-05-10T01:11:31.392Z,997.00
2019-05-10T01:12:31.892Z,996.97
2019-05-10T01:13:31.427Z,997.02
2019-05-10T01:14:21.886Z,997.04
2019-05-10T01:15:21.906Z,997.03
2019-05-10T01:16:21.879Z,997.11
2019-05-10T01:17:21.856Z,997.08
2019-05-10T01:18:21.923Z,997.07
2019-05-10T01:19:21.822Z,997.11
2019-05-10T01:20:31.434Z,997.15
2019-05-10T01:21:21.804Z,997.11
2019-05-10T01:22:21.786Z,997.14
2019-05-10T01:23:21.800Z,997.15
2019-05-10T01:24:21.786Z,997.15
2019-05-10T01:25:34.065Z,997.11
2019-05-10T01:26:22.755Z,997.15
2019-05-10T01:27:21.785Z,997.16
2019-05-10T01:28:21.751Z,997.21
2019-05-10T01:29:21.724Z,997.16
2019-05-10T01:30:21.722Z,997.20
2019-05-10T01:31:21.731Z,997.17
2019-05-10T01:32:21.741Z,997.18
2019-05-10T01:33:21.676Z,997.21
2019-05-10T01:34:21.661Z,997.21
2019-05-10T01:35:21.694Z,997.20
2019-05-10T01:36:21.677Z,997.23
2019-05-10T01:37:21.650Z,997.17
2019-05-10T01:38:21.644Z,997.21
2019-05-10T01:39:21.624Z,997.19
2019-05-10T01:40:21.597Z,997.16
2019-05-10T01:41:21.605Z,997.18
2019-05-10T01:42:21.600Z,997.22
2019-05-10T01:43:21.576Z,997.20
2019-05-10T01:44:21.570Z,997.21
2019-05-10T01:45:21.543Z,997.19
2019-05-10T01:46:21.574Z,997.23
2019-05-10T01:47:21.557Z,997.25
2019-05-10T01:48:21.546Z,997.18
2019-05-10T01:49:21.511Z,997.26
2019-05-10T01:50:21.505Z,997.23
2019-05-10T01:51:21.489Z,997.24
2019-05-10T01:52:21.485Z,997.22
2019-05-10T01:53:21.522Z,997.23
2019-05-10T01:54:21.456Z,997.21
2019-05-10T01:55:21.478Z,997.21
2019-05-10T01:56:21.460Z,997.25
2019-05-10T01:57:21.488Z,997.22
2019-05-10T01:58:21.463Z,997.25
2019-05-10T01:59:21.435Z,997.25
2019-05-10T02:00:21.410Z,997.23
2019-05-10T02:01:21.402Z,997.24
2019-05-10T02:02:21.399Z,997.27
2019-05-10T02:03:21.380Z,997.24
2019-05-10T02:04:21.350Z,997.28
2019-05-10T02:05:21.346Z,997.26
2019-05-10T02:06:21.334Z,997.28
2019-05-10T02:07:22.637Z,997.33
2019-05-10T02:08:24.555Z,997.33
2019-05-10T02:09:22.412Z,997.33
2019-05-10T02:10:22.875Z,997.34
2019-05-10T02:11:21.304Z,997.35
2019-05-10T02:12:21.564Z,997.38
2019-05-10T02:13:21.471Z,997.38
2019-05-10T02:14:22.720Z,997.40
2019-05-10T02:15:21.342Z,997.40
2019-05-10T02:16:22.925Z,997.40
2019-05-10T02:17:22.377Z,997.39
2019-05-10T02:18:22.043Z,997.41
2019-05-10T02:19:21.888Z,997.42
2019-05-10T02:20:22.275Z,997.39
2019-05-10T02:21:23.009Z,997.42
2019-05-10T02:22:22.177Z,997.48
2019-05-10T02:23:23.583Z,997.45
2019-05-10T02:24:22.009Z,997.47
2019-05-10T02:25:22.381Z,997.45
2019-05-10T02:26:21.262Z,997.43
2019-05-10T02:27:21.882Z,997.44
2019-05-10T02:28:22.043Z,997.44
2019-05-10T02:29:22.411Z,997.43
2019-05-10T02:30:21.886Z,997.44
2019-05-10T02:31:21.896Z,997.45
2019-05-10T02:32:22.465Z,997.45
2019-05-10T02:33:21.971Z,997.45
2019-05-10T02:34:21.362Z,997.43
2019-05-10T02:35:21.160Z,997.45
2019-05-10T02:36:22.211Z,997.46
2019-05-10T02:37:22.676Z,997.40
2019-05-10T02:38:21.900Z,997.44
2019-05-10T02:39:22.888Z,997.47
2019-05-10T02:40:22.224Z,997.44
2019-05-10T02:41:21.896Z,997.52
2019-05-10T02:42:21.892Z,997.53
2019-05-10T02:43:21.098Z,997.51
2019-05-10T02:44:21.886Z,997.54
2019-05-10T02:45:21.027Z,997.57
2019-05-10T02:46:21.456Z,997.55
2019-05-10T02:47:21.018Z,997.58
2019-05-10T02:48:20.918Z,997.55
2019-05-10T02:49:20.914Z,997.60
2019-05-10T02:50:20.892Z,997.58
2019-05-10T02:51:20.854Z,997.57
2019-05-10T02:52:20.845Z,997.60
2019-05-10T02:53:20.861Z,997.58
2019-05-10T02:54:20.822Z,997.56
2019-05-10T02:55:20.893Z,997.56
2019-05-10T02:56:30.286Z,997.63
2019-05-10T02:57:21.812Z,997.60
2019-05-10T02:58:20.820Z,997.58
2019-05-10T02:59:20.791Z,997.61
2019-05-10T03:00:20.755Z,997.62
2019-05-10T03:01:20.748Z,997.61
2019-05-10T03:02:20.804Z,997.62
2019-05-10T03:03:20.729Z,997.61
2019-05-10T03:04:20.748Z,997.60
2019-05-10T03:05:20.725Z,997.62
2019-05-10T03:06:20.712Z,997.60
2019-05-10T03:07:20.814Z,997.67
2019-05-10T03:08:20.680Z,997.67
2019-05-10T03:09:20.680Z,997.66
2019-05-10T03:10:20.689Z,997.65
2019-05-10T03:11:20.682Z,997.71
2019-05-10T03:12:20.659Z,997.75
2019-05-10T03:13:20.619Z,997.74
2019-05-10T03:14:20.640Z,997.68
2019-05-10T03:15:20.625Z,997.73
2019-05-10T03:16:20.686Z,997.69
2019-05-10T03:17:20.602Z,997.71
2019-05-10T03:18:20.561Z,997.69
2019-05-10T03:19:20.560Z,997.73
2019-05-10T03:20:20.590Z,997.71
2019-05-10T03:21:20.562Z,997.75
2019-05-10T03:22:20.533Z,997.73
2019-05-10T03:23:20.545Z,997.72
2019-05-10T03:24:20.529Z,997.73
2019-05-10T03:25:20.499Z,997.73
2019-05-10T03:26:20.532Z,997.74
2019-05-10T03:27:20.483Z,997.75
2019-05-10T03:28:20.593Z,997.76
2019-05-10T03:29:20.477Z,997.78
2019-05-10T03:30:20.464Z,997.79
2019-05-10T03:31:20.450Z,997.79
2019-05-10T03:32:20.446Z,997.76
2019-05-10T03:33:20.451Z,997.78
2019-05-10T03:34:20.419Z,997.79
2019-05-10T03:35:20.396Z,997.80
2019-05-10T03:36:20.365Z,997.83
2019-05-10T03:37:20.421Z,997.87
2019-05-10T03:38:20.356Z,997.84
2019-05-10T03:39:20.392Z,997.86
2019-05-10T03:40:20.330Z,997.87
2019-05-10T03:41:20.325Z,997.88
2019-05-10T03:42:20.372Z,997.91
2019-05-10T03:43:20.350Z,997.86
2019-05-10T03:44:20.298Z,997.92
2019-05-10T03:45:20.279Z,997.95
2019-05-10T03:46:20.477Z,997.95
2019-05-10T03:47:20.334Z,997.97
2019-05-10T03:48:20.268Z,998.01
2019-05-10T03:49:20.313Z,998.05
2019-05-10T03:50:20.225Z,998.04
2019-05-10T03:51:20.212Z,998.06
2019-05-10T03:52:20.212Z,998.13
2019-05-10T03:53:20.260Z,998.05
2019-05-10T03:54:20.228Z,998.06
2019-05-10T03:55:20.196Z,998.07
2019-05-10T03:56:20.179Z,998.11
2019-05-10T03:57:20.149Z,998.11
2019-05-10T03:58:20.157Z,998.08
2019-05-10T03:59:20.144Z,998.12
2019-05-10T04:00:20.131Z,998.14
2019-05-10T04:01:20.118Z,998.13
2019-05-10T04:02:20.103Z,998.18
2019-05-10T04:03:20.093Z,998.18
2019-05-10T04:04:20.325Z,998.20
2019-05-10T04:05:20.094Z,998.24
2019-05-10T04:06:20.065Z,998.24
2019-05-10T04:07:20.045Z,998.25
2019-05-10T04:08:20.030Z,998.26
2019-05-10T04:09:20.059Z,998.26
2019-05-10T04:10:21.093Z,998.24
2019-05-10T04:11:20.044Z,998.28
2019-05-10T04:12:20.247Z,998.23
2019-05-10T04:13:23.189Z,998.29
2019-05-10T04:14:20.342Z,998.31
2019-05-10T04:15:23.784Z,998.29
2019-05-10T04:16:20.107Z,998.29
2019-05-10T04:17:20.919Z,998.35
2019-05-10T04:18:19.964Z,998.33
2019-05-10T04:19:22.115Z,998.35
2019-05-10T04:20:20.769Z,998.36
2019-05-10T04:21:20.005Z,998.37
2019-05-10T04:22:22.083Z,998.37
2019-05-10T04:23:20.327Z,998.38
2019-05-10T04:24:19.885Z,998.38
2019-05-10T04:25:19.866Z,998.35
2019-05-10T04:26:19.863Z,998.32
2019-05-10T04:27:31.497Z,998.39
2019-05-10T04:28:22.464Z,998.42
2019-05-10T04:29:19.889Z,998.40
2019-05-10T04:30:19.812Z,998.42
2019-05-10T04:31:19.948Z,998.41
2019-05-10T04:32:20.409Z,998.44
2019-05-10T04:33:19.812Z,998.45
2019-05-10T04:34:19.767Z,998.50
2019-05-10T04:35:20.072Z,998.53
2019-05-10T04:36:19.969Z,998.56
2019-05-10T04:37:19.737Z,998.57
2019-05-10T04:38:19.900Z,998.61
2019-05-10T04:39:19.761Z,998.59
2019-05-10T04:40:20.341Z,998.56
2019-05-10T04:41:19.863Z,998.61
2019-05-10T04:42:20.117Z,998.61
2019-05-10T04:43:20.867Z,998.61
2019-05-10T04:44:20.421Z,998.65
2019-05-10T04:45:21.930Z,998.64
2019-05-10T04:46:19.668Z,998.65
2019-05-10T04:47:23.905Z,998.65
2019-05-10T04:48:19.679Z,998.65
2019-05-10T04:49:19.623Z,998.72
2019-05-10T04:50:19.590Z,998.67
2019-05-10T04:51:19.596Z,998.68
2019-05-10T04:52:19.671Z,998.70
2019-05-10T04:53:19.568Z,998.69
2019-05-10T04:54:19.682Z,998.70
2019-05-10T04:55:19.581Z,998.69
2019-05-10T04:56:19.578Z,998.70
2019-05-10T04:57:21.727Z,998.74
2019-05-10T04:58:19.516Z,998.78
2019-05-10T04:59:21.307Z,998.78
2019-05-10T05:00:19.485Z,998.79
2019-05-10T05:01:20.418Z,998.80
2019-05-10T05:02:22.075Z,998.80
2019-05-10T05:03:20.532Z,998.80
2019-05-10T05:04:24.339Z,998.80
2019-05-10T05:05:29.858Z,998.81
2019-05-10T05:06:19.409Z,998.81
2019-05-10T05:07:19.393Z,998.84
2019-05-10T05:08:20.651Z,998.82
2019-05-10T05:09:24.457Z,998.85
2019-05-10T05:10:25.647Z,998.89
2019-05-10T05:11:19.958Z,998.82
2019-05-10T05:12:29.111Z,998.82
2019-05-10T05:13:21.066Z,998.79
2019-05-10T05:14:22.131Z,998.83
2019-05-10T05:15:19.414Z,998.82
2019-05-10T05:16:21.171Z,998.83
2019-05-10T05:17:22.058Z,998.86
2019-05-10T05:18:22.605Z,998.87
2019-05-10T05:19:19.287Z,998.89
2019-05-10T05:20:19.278Z,998.89
2019-05-10T05:21:19.278Z,998.86
2019-05-10T05:22:19.252Z,998.91
2019-05-10T05:23:19.224Z,998.92
2019-05-10T05:24:22.900Z,998.93
2019-05-10T05:25:21.995Z,998.92
2019-05-10T05:26:21.065Z,998.93
2019-05-10T05:27:20.994Z,998.97
2019-05-10T05:28:23.286Z,998.92
2019-05-10T05:29:22.007Z,998.91
2019-05-10T05:30:20.640Z,998.95
2019-05-10T05:31:34.228Z,998.95
2019-05-10T05:32:20.058Z,999.02
2019-05-10T05:33:20.090Z,999.01
2019-05-10T05:34:19.677Z,999.05
2019-05-10T05:35:19.168Z,999.09
2019-05-10T05:36:19.240Z,999.08
2019-05-10T05:37:19.124Z,999.11
2019-05-10T05:38:19.307Z,999.13
2019-05-10T05:39:19.212Z,999.15
2019-05-10T05:40:19.106Z,999.15
2019-05-10T05:41:19.075Z,999.15
2019-05-10T05:42:22.381Z,999.17
2019-05-10T05:43:21.773Z,999.18
2019-05-10T05:44:20.263Z,999.17
2019-05-10T05:45:20.187Z,999.18
2019-05-10T05:46:19.082Z,999.21
2019-05-10T05:47:19.686Z,999.19
2019-05-10T05:48:21.529Z,999.24
2019-05-10T05:49:18.971Z,999.24
2019-05-10T05:50:18.994Z,999.23
2019-05-10T05:51:19.093Z,999.18
2019-05-10T05:52:18.969Z,999.20
2019-05-10T05:53:22.425Z,999.19
2019-05-10T05:54:20.615Z,999.16
2019-05-10T05:55:22.766Z,999.13
2019-05-10T05:56:19.107Z,999.19
2019-05-10T05:57:22.243Z,999.21
2019-05-10T05:58:26.505Z,999.19
2019-05-10T05:59:23.799Z,999.17
2019-05-10T06:00:19.951Z,999.16
2019-05-10T06:01:26.124Z,999.13
2019-05-10T06:02:20.506Z,999.19
2019-05-10T06:03:27.767Z,999.16
2019-05-10T06:04:19.796Z,999.21
2019-05-10T06:05:32.708Z,999.25
2019-05-10T06:06:22.196Z,999.25
2019-05-10T06:07:18.756Z,999.30
2019-05-10T06:08:22.897Z,999.27
2019-05-10T06:09:19.750Z,999.28
2019-05-10T06:10:19.866Z,999.27
2019-05-10T06:11:19.499Z,999.32
2019-05-10T06:12:18.728Z,999.31
2019-05-10T06:13:23.515Z,999.34
2019-05-10T06:14:19.849Z,999.37
2019-05-10T06:15:23.078Z,999.30
2019-05-10T06:16:22.190Z,999.40
2019-05-10T06:17:23.831Z,999.36
2019-05-10T06:18:19.717Z,999.37
2019-05-10T06:19:19.944Z,999.39
2019-05-10T06:20:19.715Z,999.40
2019-05-10T06:21:25.110Z,999.39
2019-05-10T06:22:19.638Z,999.38
2019-05-10T06:23:18.640Z,999.41
2019-05-10T06:24:18.649Z,999.42
2019-05-10T06:25:18.733Z,999.42
2019-05-10T06:26:26.503Z,999.47
2019-05-10T06:27:19.638Z,999.46
2019-05-10T06:28:26.899Z,999.46
2019-05-10T06:29:19.860Z,999.44
2019-05-10T06:30:18.560Z,999.52
2019-05-10T06:31:18.554Z,999.49
2019-05-10T06:32:18.615Z,999.50
2019-05-10T06:33:21.132Z,999.50
2019-05-10T06:34:18.533Z,999.49
2019-05-10T06:35:19.548Z,999.51
2019-05-10T06:36:18.563Z,999.54
2019-05-10T06:37:18.562Z,999.58
2019-05-10T06:38:18.490Z,999.55
2019-05-10T06:39:18.541Z,999.60
2019-05-10T06:40:25.659Z,999.58
2019-05-10T06:41:19.422Z,999.65
2019-05-10T06:42:18.655Z,999.62
2019-05-10T06:43:18.448Z,999.58
2019-05-10T06:44:18.458Z,999.61
2019-05-10T06:45:18.372Z,999.61
2019-05-10T06:46:18.483Z,999.63
2019-05-10T06:47:21.681Z,999.61
2019-05-10T06:48:25.763Z,999.59
2019-05-10T06:49:19.349Z,999.57
2019-05-10T06:50:28.997Z,999.53
2019-05-10T06:51:19.379Z,999.50
2019-05-10T06:52:22.023Z,999.55
2019-05-10T06:53:22.993Z,999.54
2019-05-10T06:54:19.022Z,999.58
2019-05-10T06:55:18.275Z,999.60
2019-05-10T06:56:18.288Z,999.58
2019-05-10T06:57:19.388Z,999.61
2019-05-10T06:58:19.013Z,999.60
2019-05-10T06:59:19.455Z,999.61
2019-05-10T07:00:20.207Z,999.58
2019-05-10T07:01:18.228Z,999.54
2019-05-10T07:02:19.938Z,999.54
2019-05-10T07:03:19.256Z,999.59
2019-05-10T07:04:19.098Z,999.55
2019-05-10T07:05:18.258Z,999.57
2019-05-10T07:06:20.063Z,999.62
2019-05-10T07:07:33.112Z,999.60
2019-05-10T07:08:20.584Z,999.63
2019-05-10T07:09:19.015Z,999.63
2019-05-10T07:10:19.380Z,999.63
2019-05-10T07:11:19.136Z,999.60
2019-05-10T07:12:18.554Z,999.65
2019-05-10T07:13:18.210Z,999.62
2019-05-10T07:14:18.516Z,999.64
2019-05-10T07:15:18.092Z,999.63
2019-05-10T07:16:24.096Z,999.64
2019-05-10T07:17:20.016Z,999.66
2019-05-10T07:18:22.533Z,999.66
2019-05-10T07:19:19.082Z,999.70
2019-05-10T07:20:18.059Z,999.70
2019-05-10T07:21:17.977Z,999.70
2019-05-10T07:22:21.673Z,999.72
2019-05-10T07:23:19.034Z,999.74
2019-05-10T07:24:24.347Z,999.73
2019-05-10T07:25:18.974Z,999.69
2019-05-10T07:26:24.599Z,999.73
2019-05-10T07:27:18.952Z,999.80
2019-05-10T07:28:17.980Z,999.80
2019-05-10T07:29:29.723Z,999.79
2019-05-10T07:30:18.896Z,999.84
2019-05-10T07:31:17.906Z,999.83
2019-05-10T07:32:22.118Z,999.84
2019-05-10T07:33:21.025Z,999.88
2019-05-10T07:34:17.884Z,999.87
2019-05-10T07:35:17.894Z,999.91
2019-05-10T07:36:20.920Z,999.96
2019-05-10T07:37:18.831Z,999.89
2019-05-10T07:38:23.520Z,999.94
2019-05-10T07:39:18.843Z,999.95
2019-05-10T07:40:18.525Z,999.97
2019-05-10T07:41:19.648Z,999.96
2019-05-10T07:42:18.911Z,999.99
2019-05-10T07:43:24.877Z,999.99
2019-05-10T07:44:19.688Z,1000.02
2019-05-10T07:45:18.763Z,1000.01
2019-05-10T07:46:18.729Z,1000.03
2019-05-10T07:47:18.575Z,1000.03
2019-05-10T07:48:17.943Z,1000.10
2019-05-10T07:49:17.730Z,1000.10
2019-05-10T07:50:17.846Z,1000.08
2019-05-10T07:51:22.681Z,1000.17
2019-05-10T07:52:18.676Z,1000.13
2019-05-10T07:53:22.908Z,1000.11
2019-05-10T07:54:18.672Z,1000.15
2019-05-10T07:55:25.346Z,1000.17
2019-05-10T07:56:19.579Z,1000.17
2019-05-10T07:57:18.591Z,1000.21
2019-05-10T07:58:18.589Z,1000.21
2019-05-10T07:59:21.962Z,1000.21
2019-05-10T08:00:18.567Z,1000.24
2019-05-10T08:01:29.083Z,1000.17
2019-05-10T08:02:18.557Z,1000.18
2019-05-10T08:03:23.359Z,1000.21
2019-05-10T08:04:27.574Z,1000.22
2019-05-10T08:05:18.620Z,1000.25
2019-05-10T08:06:19.350Z,1000.26
2019-05-10T08:07:18.552Z,1000.26
2019-05-10T08:08:19.217Z,1000.27
2019-05-10T08:09:19.279Z,1000.29
2019-05-10T08:10:19.066Z,1000.28
2019-05-10T08:12:40.135Z,1000.30
2019-05-10T08:13:45.635Z,1000.25
2019-05-10T08:15:52.270Z,1000.35
2019-05-10T08:17:05.789Z,1000.33
2019-05-10T08:17:52.223Z,1000.35
2019-05-10T08:18:55.574Z,1000.37
2019-05-10T08:19:55.058Z,1000.35
2019-05-10T08:20:57.742Z,1000.33
2019-05-10T08:21:57.403Z,1000.41
2019-05-10T08:22:53.220Z,1000.40
2019-05-10T08:23:53.997Z,1000.36
2019-05-10T08:24:55.896Z,1000.39
2019-05-10T08:27:14.006Z,1000.42
2019-05-10T08:28:09.725Z,1000.46
2019-05-10T08:29:15.129Z,1000.47
2019-05-10T08:30:22.756Z,1000.50
2019-05-10T08:31:12.183Z,1000.51
2019-05-10T08:32:08.648Z,1000.54
2019-05-10T08:33:10.851Z,1000.51
2019-05-10T08:34:08.681Z,1000.53
2019-05-10T08:35:16.207Z,1000.52
2019-05-10T08:36:11.968Z,1000.53
2019-05-10T08:37:08.610Z,1000.54
2019-05-10T08:38:08.697Z,1000.55
2019-05-10T08:39:11.025Z,1000.62
2019-05-10T08:40:09.480Z,1000.58
2019-05-10T08:41:13.469Z,1000.61
2019-05-10T08:42:29.391Z,1000.54
2019-05-10T08:43:13.041Z,1000.60
2019-05-10T08:44:16.638Z,1000.60
2019-05-10T08:45:09.530Z,1000.53
2019-05-10T08:46:08.617Z,1000.53
2019-05-10T08:47:12.592Z,1000.50
2019-05-10T08:48:09.525Z,1000.56
2019-05-10T08:49:09.483Z,1000.54
2019-05-10T08:50:21.552Z,1000.57
2019-05-10T08:51:09.493Z,1000.58
2019-05-10T08:52:08.549Z,1000.62
2019-05-10T08:53:10.698Z,1000.59
2019-05-10T08:54:08.469Z,1000.67
2019-05-10T08:55:08.516Z,1000.64
2019-05-10T08:56:16.063Z,1000.65
2019-05-10T08:57:12.671Z,1000.65
2019-05-10T08:58:09.384Z,1000.64
2019-05-10T08:59:14.567Z,1000.73
2019-05-10T09:00:09.487Z,1000.66
2019-05-10T09:01:20.550Z,1000.64
2019-05-10T09:02:09.395Z,1000.68
2019-05-10T09:03:09.761Z,1000.60
2019-05-10T09:04:10.874Z,1000.64
2019-05-10T09:05:08.317Z,1000.65
2019-05-10T09:06:11.862Z,1000.70
2019-05-10T09:07:11.766Z,1000.64
2019-05-10T09:08:13.555Z,1000.75
2019-05-10T09:09:09.337Z,1000.75
2019-05-10T09:10:09.692Z,1000.75
2019-05-10T09:11:08.313Z,1000.73
2019-05-10T09:12:09.332Z,1000.75
2019-05-10T09:13:08.255Z,1000.70
2019-05-10T09:14:12.380Z,1000.70
2019-05-10T09:15:10.308Z,1000.72
2019-05-10T09:16:08.262Z,1000.76
2019-05-10T09:17:08.259Z,1000.74
2019-05-10T09:18:08.351Z,1000.70
2019-05-10T09:19:08.188Z,1000.76
2019-05-10T09:20:11.984Z,1000.64
2019-05-10T09:21:10.814Z,1000.71
2019-05-10T09:22:08.999Z,1000.71
2019-05-10T09:23:08.589Z,1000.71
2019-05-10T09:24:09.275Z,1000.74
2019-05-10T09:25:08.097Z,1000.72
2019-05-10T09:26:11.725Z,1000.77
2019-05-10T09:27:09.133Z,1000.70
2019-05-10T09:28:11.511Z,1000.65
2019-05-10T09:29:09.062Z,1000.72
2019-05-10T09:30:13.055Z,1000.78
2019-05-10T09:31:18.648Z,1000.79
2019-05-10T09:32:09.265Z,1000.82
2019-05-10T09:33:09.005Z,1000.83
2019-05-10T09:34:08.119Z,1000.78
2019-05-10T09:35:09.218Z,1000.85
2019-05-10T09:36:07.995Z,1000.79
2019-05-10T09:37:13.124Z,1000.83
2019-05-10T09:38:09.033Z,1000.75
2019-05-10T09:39:12.618Z,1000.76
2019-05-10T09:40:09.865Z,1000.76
2019-05-10T09:41:07.928Z,1000.73
2019-05-10T09:42:11.036Z,1000.75
2019-05-10T09:43:09.866Z,1000.78
2019-05-10T09:44:07.884Z,1000.75
2019-05-10T09:45:09.839Z,1000.81
2019-05-10T09:46:08.556Z,1000.88
2019-05-10T09:47:07.895Z,1000.87
2019-05-10T09:48:07.853Z,1000.85
2019-05-10T09:49:15.746Z,1000.86
2019-05-10T09:50:08.920Z,1000.91
2019-05-10T09:51:08.561Z,1000.93
2019-05-10T09:52:12.527Z,1000.95
2019-05-10T09:53:10.254Z,1000.94
2019-05-10T09:54:07.864Z,1000.98
2019-05-10T09:55:10.232Z,1001.01
2019-05-10T09:56:08.780Z,1001.02
2019-05-10T09:57:08.268Z,1001.11
2019-05-10T09:58:08.590Z,1001.10
2019-05-10T09:59:08.527Z,1001.12
2019-05-10T10:00:07.734Z,1001.17
2019-05-10T10:01:14.801Z,1001.24
2019-05-10T10:02:14.549Z,1001.24
2019-05-10T10:03:08.753Z,1001.27
2019-05-10T10:04:07.701Z,1001.29
2019-05-10T10:05:07.663Z,1001.28
2019-05-10T10:06:11.117Z,1001.34
2019-05-10T10:07:07.672Z,1001.35
2019-05-10T10:08:09.086Z,1001.32
2019-05-10T10:09:10.845Z,1001.39
2019-05-10T10:10:07.771Z,1001.36
2019-05-10T10:11:15.094Z,1001.36
2019-05-10T10:12:08.585Z,1001.39
2019-05-10T10:13:13.190Z,1001.41
2019-05-10T10:14:10.206Z,1001.39
2019-05-10T10:15:09.983Z,1001.40
2019-05-10T10:16:10.338Z,1001.44
2019-05-10T10:17:08.661Z,1001.45
2019-05-10T10:18:07.546Z,1001.46
2019-05-10T10:19:07.540Z,1001.44
2019-05-10T10:20:08.452Z,1001.44
2019-05-10T10:21:10.050Z,1001.50
2019-05-10T10:22:11.115Z,1001.49
2019-05-10T10:23:08.535Z,1001.48
2019-05-10T10:24:15.791Z,1001.52
2019-05-10T10:25:08.461Z,1001.51
2019-05-10T10:26:07.450Z,1001.55
2019-05-10T10:27:07.568Z,1001.54
2019-05-10T10:28:16.452Z,1001.45
2019-05-10T10:29:08.441Z,1001.51
2019-05-10T10:30:12.861Z,1001.50
2019-05-10T10:31:08.606Z,1001.53
2019-05-10T10:32:08.130Z,1001.53
2019-05-10T10:33:11.483Z,1001.54
2019-05-10T10:34:08.350Z,1001.58
2019-05-10T10:35:08.077Z,1001.55
2019-05-10T10:36:10.417Z,1001.51
2019-05-10T10:37:07.938Z,1001.49
2019-05-10T10:38:08.073Z,1001.50
2019-05-10T10:39:07.535Z,1001.49
2019-05-10T10:40:08.701Z,1001.53
2019-05-10T10:41:25.606Z,1001.52
2019-05-10T10:42:12.940Z,1001.51
2019-05-10T10:43:08.282Z,1001.58
2019-05-10T10:44:08.414Z,1001.61
2019-05-10T10:45:07.443Z,1001.62
2019-05-10T10:46:11.962Z,1001.60
2019-05-10T10:47:08.410Z,1001.63
2019-05-10T10:48:12.598Z,1001.62
2019-05-10T10:49:10.449Z,1001.62
2019-05-10T10:50:09.108Z,1001.66
2019-05-10T10:51:08.235Z,1001.67
2019-05-10T10:52:11.380Z,1001.66
2019-05-10T10:54:22.200Z,1001.66
2019-05-10T10:55:18.720Z,1001.67
2019-05-10T10:56:17.791Z,1001.67
2019-05-10T10:57:18.052Z,1001.71
2019-05-10T10:58:18.927Z,1001.72
2019-05-10T10:59:18.302Z,1001.66
2019-05-10T11:00:23.244Z,1001.72
2019-05-10T11:01:24.979Z,1001.65
2019-05-10T11:02:32.691Z,1001.69
2019-05-10T11:03:18.725Z,1001.67
2019-05-10T11:04:29.140Z,1001.74
2019-05-10T11:05:26.700Z,1001.60
2019-05-10T11:06:17.619Z,1001.66
2019-05-10T11:07:17.621Z,1001.69
2019-05-10T11:08:17.602Z,1001.74
2019-05-10T11:09:17.597Z,1001.72
2019-05-10T11:10:19.282Z,1001.73
2019-05-10T11:11:17.569Z,1001.75
2019-05-10T11:12:20.849Z,1001.80
2019-05-10T11:13:29.029Z,1001.80
2019-05-10T11:14:20.545Z,1001.77
2019-05-10T11:15:23.086Z,1001.81
2019-05-10T11:16:20.663Z,1001.75
2019-05-10T11:17:17.522Z,1001.83
2019-05-10T11:18:17.507Z,1001.79
2019-05-10T11:19:17.482Z,1001.77
2019-05-10T11:20:17.478Z,1001.70
2019-05-10T11:21:17.464Z,1001.76
2019-05-10T11:22:17.484Z,1001.76
2019-05-10T11:23:17.440Z,1001.78
2019-05-10T11:24:18.731Z,1001.76
2019-05-10T11:25:17.448Z,1001.82
2019-05-10T11:26:17.439Z,1001.75
2019-05-10T11:27:17.509Z,1001.79
2019-05-10T11:28:17.413Z,1001.81
2019-05-10T11:29:25.332Z,1001.82
2019-05-10T11:30:18.426Z,1001.80
2019-05-10T11:31:17.365Z,1001.74
2019-05-10T11:32:17.372Z,1001.78
2019-05-10T11:33:27.291Z,1001.78
2019-05-10T11:34:18.379Z,1001.77
2019-05-10T11:35:25.204Z,1001.78
2019-05-10T11:36:18.339Z,1001.79
2019-05-10T11:37:18.562Z,1001.77
2019-05-10T11:38:18.309Z,1001.77
2019-05-10T11:39:25.920Z,1001.81
2019-05-10T11:40:28.032Z,1001.75
2019-05-10T11:41:23.654Z,1001.76
2019-05-10T11:42:18.256Z,1001.81
2019-05-10T11:43:17.511Z,1001.79
2019-05-10T11:44:18.241Z,1001.76
2019-05-10T11:45:17.226Z,1001.75
2019-05-10T11:46:17.331Z,1001.73
2019-05-10T11:47:24.094Z,1001.79
2019-05-10T11:48:18.184Z,1001.76
2019-05-10T11:49:17.201Z,1001.77
2019-05-10T11:51:18.154Z,1001.78
2019-05-10T11:52:17.138Z,1001.83
2019-05-10T11:53:17.606Z,1001.79
2019-05-10T11:54:17.107Z,1001.79
2019-05-10T11:55:17.112Z,1001.81
2019-05-10T11:56:17.210Z,1001.83
2019-05-10T11:57:17.100Z,1001.82
2019-05-10T11:58:17.083Z,1001.79
2019-05-10T11:59:03.714Z,1001.79
2019-05-10T11:59:17.072Z,1001.83
2019-05-10T12:00:28.069Z,1001.88
2019-05-10T12:01:21.481Z,1002.01
2019-05-10T12:02:35.392Z,1002.03
2019-05-10T12:03:22.388Z,1002.06
2019-05-10T12:04:23.888Z,1002.02
2019-05-10T12:05:22.806Z,1002.07
2019-05-10T12:06:18.023Z,1001.66
2019-05-10T12:07:23.892Z,1001.82
2019-05-10T12:08:17.970Z,1001.74
2019-05-10T12:09:16.977Z,1002.16
2019-05-10T12:10:20.999Z,1001.77
2019-05-10T12:11:29.409Z,1001.77
2019-05-10T12:12:29.716Z,1001.84
2019-05-10T12:13:20.824Z,1001.85
2019-05-10T12:14:17.910Z,1001.78
2019-05-10T12:15:24.741Z,1001.89
2019-05-10T12:16:18.019Z,1001.76
2019-05-10T12:17:16.906Z,1001.79
2019-05-10T12:18:21.909Z,1001.77
2019-05-10T12:19:21.253Z,1001.78
2019-05-10T12:20:17.177Z,1001.86
2019-05-10T12:21:16.873Z,1001.81
2019-05-10T12:22:16.907Z,1001.84
2019-05-10T12:23:22.877Z,1001.94
2019-05-10T12:25:38.020Z,1001.89
2019-05-10T12:26:50.013Z,1001.90